x

9410230 - La Jolla, Ca (ljac1) Weather Station

7:18 - Sat 25th Feb 2017 All times are PST. -8 hours from GMT.

  • Wind
    11mph, 13mph gusts
  • Sea Temp 59°f
  • Air Temp 51°f
  • Sea Pressure 1019.9mb
  • 9410230 - La Jolla, Ca
  • 9410230 - La Jolla, Ca

More Historic Weather Station data

Upgrade to MSW Pro to gain access to the past 30 days of data for over 8000 Wavebouys and Weather Stations around the globe.

Join Pro

Comparision Forecast

View Surf forecast
   
sam. 02/25 7:18 11 13 mph 1019.9mb 59f 51f
7:12 11 13 mph 1019.8mb 59f 51f
7:06 11 13 mph 1019.8mb 59f 51f
7:00 10 13 mph 1019.9mb 59f 51f
6:54 10 11 mph 1019.9mb 59f 51f
6:48 11 13 mph 1019.9mb 59f 50f
6:42 11 14 mph 1019.8mb 59f 50f
6:36 11 14 mph 1019.9mb 59f 50f
6:30 10 13 mph 1020mb 59f 50f
6:24 10 11 mph 1019.9mb 59f 50f
6:18 9
mph
1019.9mb 59f 50f
6:12 9 11 mph 1019.9mb 59f 50f
6:06 9 10 mph 1019.9mb 58f 50f
6:00 9 11 mph 1019.9mb 58f 50f
5:54 8 9 mph 1020mb 58f 51f
5:48 8 10 mph 1020.1mb 58f 51f
5:42 8 9 mph 1020.2mb 58f 51f
5:36 8 9 mph 1020.3mb 58f 51f
5:30 7 8 mph 1020.3mb 58f 51f
5:24 3 6 mph 1020.3mb 58f 52f
5:18 6 9 mph 1020.3mb 58f 51f
5:12 8 9 mph 1020.3mb 58f 51f
5:06 6 8 mph 1020.2mb 58f 52f
5:00 7 9 mph 1020.1mb 58f 51f
4:54 7 8 mph 1020.1mb 58f 52f
4:48 7 8 mph 1020.1mb 58f 52f
4:42 8 9 mph 1020.1mb 58f 51f
4:36 6 7 mph 1020.1mb 58f 52f
4:30 3 5 mph 1020.1mb 58f 53f
4:24 2 3 mph 1020mb 58f 53f
4:18 2 3 mph 1020.1mb 58f 53f
4:12 3
mph
1020mb 58f 53f
4:06 2 3 mph 1019.9mb 59f 54f
4:00  -  5 mph 1019.8mb 59f 53f
3:54 3 5 mph 1019.9mb 59f 53f
3:48  -  5 mph 1019.9mb 59f 53f
3:42 3 6 mph 1019.8mb 59f 53f
3:36 2 3 mph 1019.8mb 59f 53f
3:30 3 5 mph 1019.9mb 59f 53f
3:24 2 3 mph 1019.9mb 59f 53f
3:18  -  3 mph 1020.1mb 59f 53f
3:12 1 5 mph 1020.1mb 59f 53f
3:06 1 5 mph 1020.2mb 59f 53f
3:00 2 3 mph 1020.2mb 59f 53f
2:54 2 3 mph 1020.3mb 59f 53f
2:48 3 5 mph 1020.5mb 59f 54f
2:42 1 6 mph 1020.5mb 59f 54f
2:36 5 7 mph 1020.6mb 59f 54f
2:30 7 8 mph 1020.7mb 59f 55f
2:24 7 8 mph 1020.7mb 59f 55f
2:18 7 9 mph 1020.6mb 59f 55f
2:12 7 9 mph 1020.6mb 59f 55f
2:06 7 10 mph 1020.6mb 59f 55f
2:00 8 9 mph 1020.6mb 59f 55f
1:54 7 8 mph 1020.8mb 59f 55f
1:48 7 9 mph 1020.9mb 59f 55f
1:42 8 9 mph 1021mb 59f 55f
1:36 7 9 mph 1021.1mb 59f 55f
1:30 7 9 mph 1021.1mb 59f 55f
1:24 7 9 mph 1021.2mb 59f 55f
1:18 8 9 mph 1021.3mb 59f 55f
1:12 8 10 mph 1021.4mb 59f 55f
1:06 7 9 mph 1021.5mb 59f 55f
1:00 8 9 mph 1021.5mb 59f 55f
12:54 7 8 mph 1021.5mb 59f 54f
12:48 7 8 mph 1021.6mb 59f 54f
12:42 7 8 mph 1021.6mb 59f 55f
12:36 8
mph
1021.6mb 59f 55f
12:30 7
mph
1021.7mb 59f 55f
12:24 6
mph
1021.8mb 59f 55f
12:18 3 5 mph 1021.8mb 59f 54f
12:12 3 7 mph 1021.9mb 59f 54f
12:06 5 7 mph 1022mb 59f 53f
12:00 3 6 mph 1021.9mb 59f 54f
ven. 02/24 11:54 3 5 mph 1021.9mb 59f 54f
11:48 3 5 mph 1021.9mb 59f 54f
11:42 1 3 mph 1021.9mb 59f 55f
11:36 2 5 mph 1021.9mb 59f 55f
11:30 1 2 mph 1021.9mb 59f 55f
11:24 1 2 mph 1021.9mb 59f 55f
11:18 2
mph
1021.9mb 59f 55f
11:12 1 2 mph 1021.8mb 59f 56f
11:06 1 3 mph 1021.8mb 59f 56f
11:00 2 3 mph 1021.9mb 59f 56f
10:54 1 2 mph 1021.9mb 59f 56f
10:48  -  3 mph 1021.9mb 59f -
10:42 1 3 mph 1021.9mb 59f -
10:36 3 6 mph 1021.9mb 59f -
10:30 5 6 mph 1021.9mb 59f 57f
10:24 3 5 mph 1021.9mb 59f 57f
10:18 5
mph
1021.9mb 59f 57f
10:12 3 5 mph 1022mb 59f 57f
10:06 2 5 mph 1021.9mb 59f 57f
10:00 3 5 mph 1021.9mb 59f 57f
9:54 3 5 mph 1022mb 59f 57f
9:48 3 6 mph 1022mb - -
9:42 5 6 mph 1021.9mb - -
9:36 3 6 mph 1021.9mb - -
9:30 3 6 mph 1021.9mb 59f 57f
9:24 6 7 mph 1021.9mb 59f 58f
9:18 6 7 mph 1022mb 59f 58f
9:12 5 6 mph 1021.9mb 59f 58f
9:06 5 7 mph 1021.9mb 59f 58f
9:00 6 7 mph 1021.9mb 59f 58f
8:54 6 8 mph 1021.8mb 59f 58f
8:48 6 8 mph 1021.8mb 59f 58f
8:42 6 7 mph 1021.7mb 59f 58f
8:36 5 7 mph 1021.6mb 59f 58f
8:30 6 7 mph 1021.6mb 59f 58f
8:24 6 8 mph 1021.6mb 59f 58f
8:18 8 9 mph 1021.6mb 59f 58f
8:12 7 8 mph 1021.5mb 59f 58f
8:06 7 9 mph 1021.5mb 59f 58f
8:00 7 8 mph 1021.5mb 59f 58f
7:54 6 7 mph 1021.5mb 59f 58f
7:48 6 7 mph 1021.5mb 59f 58f
7:42 6
mph
1021.5mb 59f 58f
7:36 6 7 mph 1021.5mb 59f 58f
7:30 6 7 mph 1021.5mb 59f 58f
7:24 6 7 mph 1021.5mb 59f 58f
7:18 6 7 mph 1021.5mb 59f 58f
7:12 5 8 mph 1021.3mb 59f 58f
7:06 7 10 mph 1021.3mb 59f 59f
7:00 8 11 mph 1021.3mb 59f 59f
6:54 8 11 mph 1021.4mb 59f 59f
6:48 9 10 mph 1021.4mb 59f 59f
6:42 8 10 mph 1021.4mb 59f 59f
6:36 9
mph
1021.4mb 59f 59f
6:30 8 10 mph 1021.4mb 59f 59f
6:24 9 10 mph 1021.2mb 59f 59f
6:18 9 10 mph 1021.2mb 59f 59f
6:12 8 10 mph 1021.2mb 59f 59f
6:06 8 10 mph 1021.2mb 59f 59f
6:00 9 11 mph 1021.1mb 59f 59f
5:54 8 11 mph 1021.1mb 60f 59f
5:48 7 10 mph 1021mb 60f 59f
5:42 8 10 mph 1021.1mb 60f 59f
5:36 8 10 mph 1021mb 60f 59f
5:30 8 10 mph 1021mb 60f 59f
5:24 8 10 mph 1021mb 60f 59f
5:18 8 10 mph 1021mb 60f 60f
5:12 9 11 mph 1021.1mb 60f 60f
5:06 8 10 mph 1021mb 60f 60f
5:00 9 10 mph 1021mb 60f 60f
4:54 9 11 mph 1020.9mb 60f 60f
4:48 8 10 mph 1020.9mb 60f 60f
4:42 8 10 mph 1020.8mb 60f 60f
4:36 10 11 mph 1020.8mb 60f 60f
4:30 9 10 mph 1020.7mb 60f 60f
4:24 9 11 mph 1020.8mb 60f 61f
4:18 8 10 mph 1020.8mb 60f 60f
4:12 8 10 mph 1020.7mb 60f 61f
4:06 8 9 mph 1020.7mb 60f 61f
4:00 8 10 mph 1020.7mb 60f 61f
3:54 7 8 mph 1020.6mb 60f 61f
3:48 7 8 mph 1020.6mb 60f 61f
3:42 7 9 mph 1020.6mb 60f 61f
3:36 8 10 mph 1020.7mb 60f 61f
3:30 8 9 mph 1020.7mb 60f 61f
3:24 8 9 mph 1020.6mb 60f 61f
3:18 7 9 mph 1020.6mb 60f 60f
3:12 7 9 mph 1020.6mb 60f 61f
3:06 7 9 mph 1020.6mb 60f 61f
3:00 7 9 mph 1020.7mb 60f 61f
2:54 6 9 mph 1020.6mb 60f 61f
2:48 8 10 mph 1020.7mb - 61f
2:42 8 9 mph 1020.8mb - 61f
2:36 9 11 mph 1020.8mb - 60f
2:30 9 11 mph 1020.9mb 60f 60f
2:24 9 10 mph 1020.9mb 59f 60f
2:18 9 10 mph 1020.9mb 59f 61f
2:12 9 10 mph 1020.9mb 59f 60f
2:06 10 11 mph 1021mb 59f 60f
2:00 9 10 mph 1021mb 59f 60f
1:54 7 10 mph 1021mb 59f 60f
1:48 9 11 mph 1021mb 59f 60f
1:42 9 10 mph 1021mb 59f 60f
1:36 7 10 mph 1020.9mb 59f 61f
1:30 7 11 mph 1020.9mb 59f 60f
1:24 9 11 mph 1021mb 59f 60f
1:18 9 11 mph 1021.1mb 59f 60f
1:12 9 13 mph 1021.1mb 59f 60f
1:06 8 10 mph 1021.1mb 59f 60f
1:00 9 11 mph 1021.1mb 59f 60f
12:54 9 11 mph 1021.2mb 59f 60f
12:48 9 10 mph 1021.2mb 59f 60f
12:42 7 10 mph 1021.3mb 59f 60f
12:36 6 10 mph 1021.4mb 58f 60f
12:30 8 11 mph 1021.5mb 59f 60f
12:24 7 9 mph 1021.5mb 58f 60f
12:18 7 9 mph 1021.6mb 58f 60f
12:12 7 9 mph 1021.6mb 58f 60f
12:06 7 8 mph 1021.6mb 58f 60f
12:00 5 9 mph 1021.6mb 58f 60f
11:54 6 9 mph 1021.8mb 58f 60f
11:48 6 8 mph 1021.8mb 58f 60f
11:42 7 8 mph 1021.7mb 58f 60f
11:36 6 8 mph 1021.8mb 58f 60f
11:30 6 8 mph 1021.8mb 57f 60f
11:24 6 8 mph 1021.8mb 57f 60f
11:18 6 7 mph 1021.9mb 57f 60f
11:12 5 7 mph 1022mb 57f 60f
11:06 6 7 mph 1022.1mb 58f 60f
11:00 6 8 mph 1022.1mb 58f 59f
10:54 6 7 mph 1022mb 58f 59f
10:48 6 7 mph 1022mb 58f 59f
10:42 5 6 mph 1022.1mb 58f 59f
10:36 6 7 mph 1022.2mb 58f 59f
10:30 6 7 mph 1022.2mb 58f 59f
10:24 7
mph
1022.1mb 58f 59f
10:18 6 7 mph 1022.2mb 58f 59f
10:12 6 7 mph 1022.2mb 58f 59f
10:06 5 7 mph 1022.2mb 58f 59f
10:00 5 6 mph 1022.3mb 58f 59f
9:54 5 6 mph 1022.2mb 58f 59f
9:48 3 5 mph 1022.2mb 58f 59f
9:42 3
mph
1022.3mb 58f 60f
9:36 1 3 mph 1022.3mb 58f 61f
9:30 1 3 mph 1022.2mb 58f 61f
9:24 2 3 mph 1022.1mb 58f 60f
9:18  -  5 mph 1022.1mb 58f 60f
9:12 2 6 mph 1022.1mb 58f 59f
9:06 5 6 mph 1022.1mb 58f 59f
9:00 6 7 mph 1022.1mb 58f 58f
8:54 7 8 mph 1022.1mb 58f 58f
8:48 8 10 mph 1022mb 58f 57f
8:42 5 10 mph 1022.1mb 58f 57f
8:36 7 10 mph 1022.1mb 58f 56f
8:30 7 10 mph 1022.1mb 58f 56f
8:24 8 11 mph 1022.1mb 58f 55f
8:18 9 11 mph 1022mb 58f 55f
8:12 8 10 mph 1022mb 58f 55f
8:06 8 13 mph 1021.9mb 58f 54f
8:00 10 14 mph 1021.7mb 58f 53f
7:54 14 15 mph 1021.6mb 58f 53f
7:48 14 15 mph 1021.5mb 58f 53f
7:42 11 15 mph 1021.3mb 58f 52f
7:36 13 15 mph 1021.1mb 58f 52f
7:30 14 16 mph 1021.1mb 58f 52f
7:24 14 16 mph 1020.9mb 58f 51f
7:18 14 15 mph 1020.9mb 58f 51f
7:12 14 16 mph 1020.8mb 58f 51f
7:06 13 16 mph 1020.7mb 58f 51f
7:00 11 15 mph 1020.7mb 58f 51f
6:54 10 13 mph 1020.7mb 58f 50f
6:48 9 14 mph 1020.7mb 58f 51f
6:42 8 11 mph 1020.7mb 58f 51f
6:36 8 11 mph 1020.6mb 58f 51f
6:30 8 13 mph 1020.6mb 58f 51f
6:24 8 10 mph 1020.5mb 58f 51f
6:18 7 10 mph 1020.4mb 58f 51f
6:12 8 10 mph 1020.3mb 58f 51f
6:06 6 9 mph 1020.2mb 58f 51f
6:00 7 10 mph 1020.2mb 58f 51f
5:54 8 10 mph 1020.1mb 58f 51f
5:48 8 11 mph 1020.1mb 58f 51f
5:42 9 11 mph 1020.1mb 58f 51f
5:36 9 10 mph 1020mb 58f 51f
5:30 9 11 mph 1020mb 58f 51f
5:24 10 13 mph 1019.9mb 58f 51f
5:18 10 11 mph 1019.7mb 58f 51f
5:12 10 11 mph 1019.7mb 58f 51f
5:06 11 14 mph 1019.7mb 58f 50f
5:00 11 15 mph 1019.6mb 58f 50f
4:54 11 14 mph 1019.6mb 58f 51f
4:48 13 15 mph 1019.4mb 58f 51f
4:42 14 17 mph 1019.2mb 58f 51f
4:36 15 17 mph 1019.1mb 58f 51f
4:30 14 16 mph 1019.2mb 58f 51f
4:24 14 16 mph 1019.2mb 58f 51f
4:18 14 15 mph 1019.3mb 58f 51f
4:12 13 14 mph 1019.3mb 58f 51f
4:06 11 15 mph 1019.3mb 58f 51f
4:00 13 14 mph 1019.3mb 58f 51f
3:54 14 15 mph 1019.3mb 58f 51f
3:48 14 16 mph 1019.3mb 58f 51f
3:42 14 16 mph 1019.4mb 58f 51f
3:36 11 14 mph 1019.4mb 58f 51f
3:30 13 15 mph 1019.4mb 58f 51f
3:24 13 15 mph 1019.5mb 58f 51f
3:18 13 14 mph 1019.6mb 58f 51f
3:12 11 15 mph 1019.5mb 59f 51f
3:06 11 15 mph 1019.6mb 58f 51f
3:00 13 14 mph 1019.5mb 59f 52f
2:54 11 15 mph 1019.5mb 59f 51f
2:48 11 14 mph 1019.6mb 59f 51f
2:42 13 14 mph 1019.6mb 58f 51f
2:36 13 14 mph 1019.6mb 58f 52f
2:30 11 14 mph 1019.7mb 58f 51f
2:24 11 14 mph 1019.7mb 58f 51f
2:18 11 14 mph 1019.7mb 58f 51f
2:12 13 14 mph 1019.7mb 58f 51f
2:06 11 14 mph 1019.8mb 58f 51f
2:00 8 10 mph 1019.8mb 58f 52f
1:54 9 11 mph 1019.9mb 58f 52f
1:48 9 10 mph 1020mb 58f 52f
1:42 9 11 mph 1020mb 59f 52f
1:36 9 13 mph 1020mb 59f 52f
1:30 10 11 mph 1020mb 59f 52f
1:24 10 13 mph 1020mb 59f 52f
1:18 10 13 mph 1020.1mb 59f 52f
1:12 11 13 mph 1020.1mb 59f 52f
1:06 10 13 mph 1020.1mb 59f 52f
1:00 11 13 mph 1020.1mb 59f 52f
12:54 10 11 mph 1020.1mb 59f 52f
12:48 9 11 mph 1020.1mb 59f 52f
12:42 10 13 mph 1020.1mb 59f 52f
12:36 10 13 mph 1020.1mb 59f 52f
12:30 10 11 mph 1020.1mb 59f 53f
12:24 10 13 mph 1020.2mb 59f 53f
12:18 10 11 mph 1020.2mb 59f 53f
12:12 10 13 mph 1020.2mb 59f 53f
12:06 10 11 mph 1020.1mb 59f 53f
12:00 9 11 mph 1020.1mb 59f 53f
jeu. 02/23 11:54 9 11 mph 1020.2mb 59f 53f
11:48 9 10 mph 1020.1mb 59f 53f
11:42 8 9 mph 1020.1mb 59f 53f
11:36 7 9 mph 1020.1mb 59f 53f
11:30 7 9 mph 1020mb 59f 54f
11:24 7 10 mph 1020.1mb 59f 54f
11:18 6 8 mph 1020.1mb 59f 55f
11:12 6 7 mph 1020mb 59f 54f
11:00 1 7 mph 1020mb 59f 55f
10:54 3 6 mph 1020mb 59f 55f
10:48 5 6 mph 1020mb 59f -
10:42 5 7 mph 1020mb 59f -
10:36 2 6 mph 1020mb 59f -
10:30 5 7 mph 1020mb 59f 55f
10:24 3 7 mph 1020mb 59f 55f
10:18 6 8 mph 1019.9mb 59f 55f
10:12 7 9 mph 1019.9mb 59f 55f
10:06 7 8 mph 1020mb 59f 55f
10:00 6 7 mph 1019.9mb 59f 55f
9:54 5 6 mph 1019.9mb 59f 55f
9:48 6 8 mph 1019.9mb 59f -
9:42 6 7 mph 1019.9mb 59f -
9:36 3 6 mph 1019.9mb 59f -
9:30 5 6 mph 1020mb 59f 55f
9:24 2 5 mph 1019.9mb 59f 55f
9:18 2 5 mph 1019.9mb 59f 55f
9:12 2 3 mph 1019.9mb 59f 56f
9:06 2 3 mph 1019.9mb 59f 55f
9:00 3 5 mph 1019.8mb 59f 56f
8:54 3 5 mph 1019.8mb 59f 56f
8:48 2 3 mph 1019.8mb 59f 56f
8:42 1 2 mph 1019.7mb 59f 56f
8:36 1 2 mph 1019.7mb 59f 56f
8:30 1 2 mph 1019.6mb 59f 56f
8:24 1 2 mph 1019.6mb 59f 56f
8:18 1 2 mph 1019.6mb 59f 56f
8:12 1
mph
1019.6mb 59f 56f
8:06 1 3 mph 1019.5mb 59f 56f
8:00 2
mph
1019.5mb 59f 56f
7:54 2
mph
1019.4mb 59f 56f
7:48 2 3 mph 1019.5mb 59f 56f
7:42  -  2 mph 1019.4mb 59f 56f
7:36 1 3 mph 1019.3mb 59f 57f
7:30 2 3 mph 1019.3mb 59f 57f
7:24 3 6 mph 1019.3mb 59f 57f
7:18 3 6 mph 1019.2mb 59f 58f
7:12 2 3 mph 1019.2mb 59f 57f
7:06 2 6 mph 1019.2mb 59f 57f
7:00 3 7 mph 1019.2mb 59f 58f
6:54 2 5 mph 1019.1mb 59f 57f
6:48 5 7 mph 1019mb 59f 58f
6:42 3 6 mph 1019mb 59f 58f
6:36 6 7 mph 1018.9mb 59f 58f
6:30 5 6 mph 1018.8mb 59f 58f
6:24 2 5 mph 1018.8mb 59f 58f
6:18 5 7 mph 1018.8mb 59f 58f
6:12 5 7 mph 1018.8mb 59f 58f
6:06 5 7 mph 1018.7mb 59f 58f
6:00 7 8 mph 1018.7mb 59f 58f
5:54 6 7 mph 1018.6mb 59f 58f
5:48 5 6 mph 1018.6mb 59f 58f
5:42 6 8 mph 1018.5mb 59f 58f
5:36 6 8 mph 1018.5mb 59f 58f
5:30 6 8 mph 1018.5mb 59f 58f
5:24 7 10 mph 1018.3mb 59f 58f
5:18 6 8 mph 1018.2mb 59f 59f
5:12 3 6 mph 1018.1mb 59f 59f
5:06 6 7 mph 1018mb 59f 58f
5:00 6 8 mph 1018mb 59f 58f
4:54 5 6 mph 1018mb 59f 59f
4:48 3 6 mph 1018mb 60f 59f
4:42 6 9 mph 1018mb 60f 58f
4:36 6 9 mph 1018mb 60f 59f
4:30 5 6 mph 1018mb 60f 60f
4:24 6 9 mph 1018.1mb 60f 59f
4:18 8 9 mph 1018mb 60f 59f
4:12 6 8 mph 1018.1mb 60f 59f
4:06 6 9 mph 1018.1mb 60f 59f
4:00 6 9 mph 1018.1mb 60f 59f
3:54 6 8 mph 1018.2mb 60f 60f
3:48 7 10 mph 1018.1mb 60f 59f
3:42 7 10 mph 1018.1mb 60f 60f
3:36 9 11 mph 1018mb 60f 59f
3:30 6 10 mph 1017.9mb 60f 60f
3:24 7 10 mph 1017.9mb 60f 59f
3:18 10 11 mph 1017.9mb 60f 58f
3:12 7 10 mph 1017.9mb 60f 60f
3:06 7 11 mph 1017.9mb 60f 60f
3:00 10 11 mph 1017.8mb 60f 59f
2:54 7 9 mph 1017.9mb 60f 59f
2:48 8 14 mph 1017.9mb 60f 59f
2:42 10 14 mph 1017.9mb 60f 58f
2:36 8 13 mph 1017.9mb 60f 59f
2:30 8 10 mph 1017.9mb 60f 59f
2:24 8 11 mph 1018mb 60f 59f
2:18 8 13 mph 1018mb 60f 59f
2:12 8 11 mph 1018mb 60f 59f
2:06 11 13 mph 1018mb 60f 59f
2:00 9 14 mph 1018mb 60f 59f
1:54 10 13 mph 1018mb 60f 59f
1:48 10 13 mph 1018mb 60f 59f
1:42 10 13 mph 1018.1mb 60f 59f
1:36 9 15 mph 1018.1mb 60f 59f
1:30 10 14 mph 1018.2mb 60f 59f
1:24 11 14 mph 1018.2mb 60f 59f
1:18 10 14 mph 1018.2mb 60f 59f
1:12 11 14 mph 1018.4mb 60f 59f
1:06 8 15 mph 1018.4mb 60f 59f
1:00 13 15 mph 1018.5mb 60f 59f
12:54 9 13 mph 1018.5mb 60f 59f
12:48 13 15 mph 1018.5mb 59f 58f
12:42 11 16 mph 1018.7mb 60f 59f
12:36 9 14 mph 1018.7mb 60f 59f
12:30 13 15 mph 1018.7mb 60f 58f
12:24 10 15 mph 1018.8mb 60f 58f
12:18 10 13 mph 1018.8mb 60f 58f
12:12 9 13 mph 1018.9mb 60f 59f
12:06 11 15 mph 1018.9mb 59f 58f
12:00 13 15 mph 1018.9mb 59f 58f
11:54 11 15 mph 1019mb 59f 58f
11:48 13 16 mph 1018.9mb 59f 58f
11:42 14 17 mph 1018.9mb 59f 58f
11:36 14 16 mph 1019mb 59f 58f
11:30 14 16 mph 1019mb 59f 58f
11:24 14 16 mph 1019.1mb 59f 58f
11:18 13 16 mph 1019.1mb 59f 58f
11:12 14 17 mph 1019.2mb 59f 58f
11:06 14 16 mph 1019.2mb 59f 58f
11:00 13 15 mph 1019.1mb 59f 58f
10:54 11 14 mph 1019.2mb 59f 58f
10:48 15 17 mph 1019.2mb 59f 58f
10:42 14 16 mph 1019.2mb 59f 58f
10:36 11 15 mph 1019.2mb 59f 58f
10:30 13 15 mph 1019.2mb 59f 58f
10:24 14 16 mph 1019.2mb 59f 58f
10:18 14 16 mph 1019.2mb 59f 58f
10:12 14 16 mph 1019.1mb 59f 58f
10:06 13 15 mph 1019.2mb 59f 58f
10:00 13 14 mph 1019.2mb 59f 58f
9:54 13 16 mph 1019.2mb 59f 58f
9:48 14 15 mph 1019.3mb 59f 58f
9:42 14 15 mph 1019.3mb 59f 58f
9:36 13 14 mph 1019.2mb 59f 58f
9:30 11 15 mph 1019.2mb 59f 58f
9:24 14 16 mph 1019.2mb 59f 58f
9:18 13 14 mph 1019.1mb 59f 58f
9:12 10 13 mph 1019mb 59f 59f
9:06 10 13 mph 1019mb 59f 58f
8:54 8 10 mph 1018.9mb 59f 59f
8:48 9 11 mph 1018.9mb 59f 59f
8:42 10 13 mph 1019mb 59f 59f
8:36 10 13 mph 1018.9mb 59f 60f
8:24 9 14 mph 1018.9mb 59f 60f
8:18 13 14 mph 1018.9mb 59f 59f
8:12 11 15 mph 1018.9mb 59f 59f
8:06 13 15 mph 1018.8mb 59f 60f
7:54 10 14 mph 1018.7mb 59f 60f
7:48 9 13 mph 1018.7mb 59f 60f
7:42 11 15 mph 1018.7mb 59f 60f
7:36 10 14 mph 1018.6mb 59f 60f
7:24 10 16 mph 1018.6mb 59f 59f
7:18 10 15 mph 1018.5mb 59f 59f
7:12 10 14 mph 1018.4mb 59f 59f
7:06 13 15 mph 1018.4mb 59f 59f
7:00 13 16 mph 1018.4mb 59f 59f
6:54 11 16 mph 1018.4mb 59f 59f
6:48 10 16 mph 1018.4mb 59f 59f
6:42 10 14 mph 1018.4mb 59f 59f
6:36 11 15 mph 1018.3mb 59f 59f
6:30 13 16 mph 1018.3mb 59f 59f
6:24 13 14 mph 1018.1mb 59f 59f
6:18 13 17 mph 1018.1mb 59f 59f
6:12 13 17 mph 1018mb 59f 59f
6:06 15 17 mph 1017.9mb 59f 59f
6:00 14 17 mph 1017.8mb 59f 60f
5:54 14 18 mph 1017.7mb 59f 60f
5:48 14 17 mph 1017.7mb 59f 60f
5:42 13 16 mph 1017.6mb 59f 60f
5:36 15 20 mph 1017.5mb 59f 60f
5:30 15 20 mph 1017.5mb 58f 60f
5:24 15 18 mph 1017.4mb 58f 60f
5:18 14 17 mph 1017.3mb 58f 60f
5:12 15 17 mph 1017.3mb 59f 60f
5:06 14 17 mph 1017.3mb 59f 60f
5:00 13 17 mph 1017.3mb 59f 60f
4:54 14 20 mph 1017.3mb 59f 60f
4:48 14 18 mph 1017.1mb 59f 60f
4:42 16 18 mph 1017.1mb 59f 60f
4:36 14 20 mph 1017mb 59f 60f
4:30 16 20 mph 1017mb 59f 60f
4:24 16 21 mph 1016.9mb 59f 60f
4:18 17 20 mph 1016.9mb 59f 60f
4:12 17 21 mph 1016.9mb 59f 60f
4:06 17 21 mph 1016.9mb 59f 60f
4:00 17 21 mph 1016.9mb 59f 60f
3:54 17 21 mph 1016.9mb 59f 60f
3:48 17 20 mph 1016.9mb 59f 60f
3:42 16 18 mph 1016.8mb 59f 60f
3:36 15 18 mph 1016.8mb 59f 60f
3:30 17 22 mph 1016.8mb 59f 60f
3:24 16 21 mph 1016.8mb 59f 60f
3:18 17 22 mph 1016.8mb 59f 60f
3:12 16 21 mph 1016.8mb 59f 60f
3:06 16 21 mph 1016.8mb 59f 60f
3:00 17 22 mph 1016.8mb 59f 60f
2:54 18 23 mph 1016.9mb 59f 61f
2:48 20 24 mph 1017mb 60f 61f
2:42 18 23 mph 1017mb 60f 61f
2:36 21 24 mph 1017.1mb 60f 61f
2:30 21 25 mph 1017.1mb 60f 61f
2:24 21 24 mph 1017.2mb 60f 61f
2:18 21 24 mph 1017.3mb 60f 61f
2:12 20 23 mph 1017.4mb 60f 61f
2:06 18 23 mph 1017.4mb 60f 61f
2:00 17 21 mph 1017.4mb 60f 61f
1:54 20 22 mph 1017.4mb 60f 61f
1:48 15 20 mph 1017.5mb 60f 61f
12:54 15 20 mph 1017.8mb 60f 60f
12:48 17 21 mph 1017.8mb 60f 60f
mer. 02/22 11:54 16 18 mph 1018.2mb 60f 60f
11:48 13 17 mph 1018.2mb 60f 60f
10:54  -  2 mph 1018.1mb 60f 59f
10:48 2 3 mph 1018.1mb 60f 59f
9:54 3 5 mph 1018.4mb 60f 60f
9:48 3 5 mph 1018.5mb 60f 60f
8:54 6 7 mph 1018.5mb 60f 60f
8:48 6 7 mph 1018.5mb 60f 60f
7:54 7 9 mph 1018.4mb 60f 60f
7:48 6 9 mph 1018.4mb 60f 60f
6:54 8 10 mph 1018.3mb 60f 60f
6:48 7 10 mph 1018.3mb 60f 60f
5:54 10 13 mph 1018.4mb 60f 60f
5:48 11 13 mph 1018.5mb 60f 60f
4:54 11 14 mph 1018.6mb 60f 60f
4:48 11 14 mph 1018.6mb 60f 60f
3:54 13 16 mph 1018.7mb 61f 61f
3:48 14 17 mph 1018.7mb 61f 61f
2:54 15 17 mph 1018.7mb 61f 61f
1:54 13 17 mph 1019.1mb 61f 62f
1:48 14 16 mph 1019.1mb 61f 62f
12:54 8 11 mph 1019.5mb 60f 62f
12:48 9 11 mph 1019.5mb 60f 62f
11:54 7 9 mph 1020.3mb 60f 62f
11:48 6 9 mph 1020.3mb 60f 62f
9:54 11 13 mph 1021.5mb 59f 61f
9:48 11 14 mph 1021.4mb 59f 61f
8:54 9 10 mph 1021.4mb 59f 61f
8:48 8 10 mph 1021.4mb 59f 61f
7:54 10 11 mph 1021.2mb 59f 61f
7:48 10 11 mph 1021.1mb 59f 61f
6:54 11 14 mph 1021mb 59f 60f
6:48 13 15 mph 1020.9mb 59f 60f
5:54 13 16 mph 1020.8mb 60f 60f
5:48 10 14 mph 1020.8mb 59f 60f
4:54 13 14 mph 1020.6mb 59f 60f
4:48 8 11 mph 1020.6mb 59f 60f
2:54 8 10 mph 1021.1mb 60f 60f
2:48 9 13 mph 1021.1mb 60f 60f
2:42 9 10 mph 1021.2mb 60f 60f
2:36 8 10 mph 1021.4mb 60f 60f
2:30 10 13 mph 1021.3mb 60f 60f
2:24 8 10 mph 1021.4mb 60f 60f
2:18 9 11 mph 1021.4mb 60f 61f
2:12 7 10 mph 1021.6mb 60f 61f
2:06 9 11 mph 1021.6mb 60f 61f
2:00 8 10 mph 1021.7mb 60f 61f
1:54 8 9 mph 1021.8mb 60f 61f
1:48 7 8 mph 1021.9mb 60f 61f
1:42 6 8 mph 1021.9mb 60f 62f
1:36 7 9 mph 1022mb 60f 62f
1:30 8
mph
1022mb 60f 62f
1:24 6 7 mph 1022.1mb 60f 62f
1:18 6 8 mph 1022.1mb 60f 62f
1:12 7 9 mph 1022.2mb 60f 62f
1:06 6 8 mph 1022.3mb 60f 62f
1:00 9 10 mph 1022.4mb 60f 62f
12:54 3 6 mph 1022.4mb 60f 61f
12:48 3 5 mph 1022.5mb 60f 61f
12:42 3 6 mph 1022.6mb 60f 61f
12:36  -  1 mph 1022.6mb 60f 61f
12:30  -  mph 1022.7mb 60f 61f
12:24  -  1 mph 1022.7mb 60f 61f
12:18  -  2 mph 1022.8mb 60f 61f
12:12 1 2 mph 1022.7mb 60f 61f
12:06  -  1 mph 1022.7mb 60f 61f
12:00 1
mph
1022.8mb 60f 61f
mar. 02/21 11:54 1
mph
1022.7mb 60f 61f
11:48  -  1 mph 1022.8mb 60f 61f
11:42  -  1 mph 1022.7mb 60f 61f
11:36 2
mph
1022.7mb 60f 61f
11:30 2
mph
- 60f 61f
11:24 2 5 mph - 60f 61f
11:18 3 5 mph 1022.9mb 60f 60f
11:12 2 3 mph 1022.9mb 60f 60f
11:06 2
mph
1022.9mb 60f 61f
11:00 1
mph
1022.8mb 60f 61f
10:54  -  mph 1022.8mb 60f 61f
10:48  -  1 mph 1022.9mb - -
10:42 1
mph
1022.9mb - -
10:36  -  1 mph 1022.9mb - -
10:30  -  1 mph 1023mb 60f 61f
10:24 1 2 mph 1023mb 60f 60f
10:18  -  mph 1023.1mb 60f 61f
10:12  -  mph 1023.2mb 60f 61f
10:06  -  1 mph 1023.2mb 60f 61f
10:00  -  1 mph 1023.2mb 60f 61f
9:54 1 2 mph 1023.2mb 60f 61f
9:48 1
mph
1023.3mb 60f 61f
9:42  -  1 mph 1023.3mb 60f 61f
9:36  -  1 mph 1023.3mb 60f 61f
9:30 1 2 mph 1023.3mb 60f 61f
9:24 1
mph
1023.4mb 60f 61f
9:18  -  1 mph 1023.4mb 60f 62f
9:12 1 2 mph 1023.4mb 60f 62f
9:06 2
mph
1023.3mb 60f 62f
9:00 2
mph
1023.4mb 60f 62f
8:54 1 3 mph 1023.4mb 60f 62f
8:48 2 3 mph 1023.4mb 60f 62f
8:42 3 5 mph 1023.5mb 60f 62f
8:36 5 6 mph 1023.5mb 60f 62f
8:30 5 6 mph 1023.5mb 60f 62f
8:24 6 7 mph 1023.5mb 60f 62f
8:18 7
mph
1023.5mb 60f 62f
8:12 5 6 mph 1023.6mb 60f 62f
8:06 7 8 mph 1023.5mb 60f 62f
8:00 8 9 mph 1023.5mb 60f 62f
7:54 7 8 mph 1023.5mb 60f 62f
7:48 7
mph
1023.5mb 60f 62f
7:42 7 8 mph 1023.5mb 60f 62f
7:36 7
mph
1023.5mb 60f 62f
7:30 6 7 mph 1023.5mb 60f 62f
7:24 7 8 mph 1023.5mb 60f 62f
7:18 7 8 mph 1023.5mb 60f 62f
7:12 7 8 mph 1023.5mb 60f 62f
7:06 7 8 mph 1023.5mb 60f 62f
7:00 7 8 mph 1023.5mb 60f 62f
6:54 6 7 mph 1023.3mb 59f 62f
6:48 6 8 mph 1023.3mb 59f 62f
6:42 7 9 mph 1023.3mb 59f 62f
6:36 7 9 mph 1023.4mb 59f 62f
6:30 8 9 mph 1023.4mb 59f 62f
6:24 7 8 mph 1023.4mb 59f 62f
6:18 7 8 mph 1023.4mb 59f 63f
6:12 7 8 mph 1023.3mb 59f 63f
6:06 8
mph
1023.4mb 59f 63f
6:00 7 8 mph 1023.4mb 59f 63f
5:54 7 8 mph 1023.3mb 58f 63f
5:48 8 9 mph 1023.3mb 59f 63f
5:42 7 8 mph 1023.4mb 59f 63f
5:36 7 8 mph 1023.3mb 59f 63f
5:30 6 8 mph 1023.3mb 59f 63f
5:24 7 8 mph 1023.3mb 59f 63f
5:18 8
mph
1023.4mb 59f 63f
5:12 7
mph
1023.3mb 59f 63f
5:06 7 8 mph 1023.3mb 59f 63f
5:00 7 8 mph 1023.4mb 59f 63f
4:54 7 8 mph 1023.5mb 59f 63f
4:48 6 7 mph 1023.5mb 59f 63f
4:42 5 6 mph 1023.3mb 59f 64f
4:36 5 6 mph 1023.4mb 59f 64f
4:30 6 7 mph 1023.5mb 59f 64f
4:24 6 7 mph 1023.5mb 60f 64f
4:18 7 8 mph 1023.6mb 59f 63f
4:12 8 10 mph 1023.6mb 59f 63f